Time;durP1;ratioP1;P1;durP2;ratioP2;P2;SDS_P1;SDS_P2;PMS_P1;PMS_P2;Temp;Humidity;BMP_temperature;BMP_pressure;BME280_temperature;BME280_humidity;BME280_pressure;Samples;Min_cycle;Max_cycle;Signal;HPM_P1;HPM_P2
2024/01/12 04:52:58;;;;;;;;;;;-9.10;99.90;;;;;;5004292;28;19932;-70
2024/01/12 04:55:24;;;;;;;;;;;-9.10;99.90;;;;;;4996462;28;19930;-72
2024/01/12 04:57:51;;;;;;;;;;;-9.20;99.90;;;;;;4995265;28;20445;-71
2024/01/12 05:00:18;;;;;;;;;;;-9.20;99.90;;;;;;5002131;28;20000;-71
2024/01/12 05:02:45;;;;;;;;;;;-9.10;99.90;;;;;;5016110;28;20413;-71
2024/01/12 05:05:12;;;;;;;;;;;-9.20;99.90;;;;;;5015959;28;19929;-71
2024/01/12 05:07:38;;;;;;;;;;;-9.20;99.90;;;;;;5015484;28;19971;-72
2024/01/12 05:10:08;;;;;;;;;;;-9.20;99.90;;;;;;5015610;28;19952;-71
2024/01/12 05:12:35;;;;;;;;;;;-9.20;99.90;;;;;;5015416;28;20334;-71
2024/01/12 05:15:01;;;;;;;;;;;-9.20;99.90;;;;;;5015632;28;20014;-71
2024/01/12 05:17:28;;;;;;;;;;;-9.20;99.90;;;;;;5015630;28;19933;-72
2024/01/12 05:19:55;;;;;;;;;;;-9.20;99.90;;;;;;5015689;28;19933;-72
2024/01/12 05:22:21;;;;;;;;;;;-9.10;99.90;;;;;;5015482;28;19932;-72
2024/01/12 05:24:48;;;;;;;;;;;-9.30;99.90;;;;;;5015129;28;20284;-72
2024/01/12 05:27:15;;;;;;;;;;;-9.20;99.90;;;;;;5015394;28;20310;-73
2024/01/12 05:29:44;;;;;;;;;;;-9.20;99.90;;;;;;5015050;28;20306;-72
2024/01/12 05:32:10;;;;;;;;;;;-9.20;99.90;;;;;;5015205;28;19932;-72
2024/01/12 05:34:37;;;;;;;;;;;-9.50;99.90;;;;;;5015224;28;19932;-72
2024/01/12 05:37:03;;;;;;;;;;;-9.30;99.90;;;;;;5015442;28;19925;-72
2024/01/12 05:39:30;;;;;;;;;;;-9.30;99.90;;;;;;5014829;28;20413;-72
2024/01/12 05:41:57;;;;;;;;;;;-9.30;99.90;;;;;;5015394;28;19933;-72
2024/01/12 05:44:24;;;;;;;;;;;-9.30;99.90;;;;;;5014853;28;20391;-72
2024/01/12 05:46:51;;;;;;;;;;;-9.20;99.90;;;;;;5014976;28;19926;-73
2024/01/12 05:49:18;;;;;;;;;;;-9.20;99.90;;;;;;5015379;28;19926;-74
2024/01/12 05:51:44;;;;;;;;;;;-9.20;99.90;;;;;;5015020;28;19932;-72
2024/01/12 05:54:11;;;;;;;;;;;-9.30;99.90;;;;;;5014893;28;19926;-71
2024/01/12 05:56:37;;;;;;;;;;;-9.40;99.90;;;;;;5014602;28;20342;-71
2024/01/12 05:59:04;;;;;;;;;;;-9.30;99.90;;;;;;5014509;28;20390;-71
2024/01/12 06:01:32;;;;;;;;;;;-9.40;99.90;;;;;;5014769;28;19965;-71
2024/01/12 06:03:59;;;;;;;;;;;-9.40;99.90;;;;;;5014418;28;20514;-71
2024/01/12 06:06:26;;;;;;;;;;;-9.40;99.90;;;;;;5014714;28;19937;-71
2024/01/12 06:08:53;;;;;;;;;;;-9.40;99.90;;;;;;5014643;28;19925;-73
2024/01/12 06:11:19;;;;;;;;;;;-9.40;99.90;;;;;;5014738;28;19925;-72
2024/01/12 06:13:46;;;;;;;;;;;-9.30;99.90;;;;;;5014495;28;19936;-72
2024/01/12 06:16:13;;;;;;;;;;;-9.30;99.90;;;;;;5014198;28;19957;-71
2024/01/12 06:18:41;;;;;;;;;;;-9.20;99.90;;;;;;5014281;28;19933;-72
2024/01/12 06:21:07;;;;;;;;;;;-9.20;99.90;;;;;;5014353;28;20315;-71
2024/01/12 06:23:34;;;;;;;;;;;-9.20;99.90;;;;;;5015831;28;19948;-71
2024/01/12 06:26:00;;;;;;;;;;;-9.20;99.90;;;;;;5015329;28;19925;-71
2024/01/12 06:28:27;;;;;;;;;;;-9.00;99.90;;;;;;5014655;28;19948;-71
2024/01/12 06:30:54;;;;;;;;;;;-9.20;99.90;;;;;;5014031;28;20486;-71
2024/01/12 06:33:21;;;;;;;;;;;-9.20;99.90;;;;;;5014281;28;20395;-71
2024/01/12 06:35:49;;;;;;;;;;;-9.10;99.90;;;;;;5014316;28;19926;-71
2024/01/12 06:38:15;;;;;;;;;;;-9.10;99.90;;;;;;5014159;28;19930;-71
2024/01/12 06:40:42;;;;;;;;;;;-9.10;99.90;;;;;;5014248;28;19933;-70
2024/01/12 06:43:08;;;;;;;;;;;-9.20;99.90;;;;;;5014299;28;19933;-70
2024/01/12 06:45:35;;;;;;;;;;;-9.20;99.90;;;;;;5014208;28;19926;-71
2024/01/12 06:48:01;;;;;;;;;;;-9.20;99.90;;;;;;5014384;28;19925;-71
2024/01/12 06:50:28;;;;;;;;;;;-9.20;99.90;;;;;;5014171;28;19933;-71
2024/01/12 06:52:56;;;;;;;;;;;-9.20;99.90;;;;;;5013775;28;20425;-71
2024/01/12 06:55:23;;;;;;;;;;;-9.30;99.90;;;;;;5013883;28;20391;-72
2024/01/12 06:57:49;;;;;;;;;;;-9.30;99.90;;;;;;5014353;28;20400;-71
2024/01/12 07:00:16;;;;;;;;;;;-9.30;99.90;;;;;;5015548;28;20044;-71
2024/01/12 07:02:43;;;;;;;;;;;-9.20;99.90;;;;;;5015607;28;19934;-71
2024/01/12 07:05:10;;;;;;;;;;;-9.30;99.90;;;;;;5015440;28;19926;-71
2024/01/12 07:07:36;;;;;;;;;;;-9.30;99.90;;;;;;5015797;28;19937;-71
2024/01/12 07:10:05;;;;;;;;;;;-9.20;99.90;;;;;;5015839;28;19925;-71
2024/01/12 07:12:31;;;;;;;;;;;-9.20;99.90;;;;;;5015854;28;19925;-71
2024/01/12 07:14:58;;;;;;;;;;;-9.20;99.90;;;;;;5014367;28;19925;-71
2024/01/12 07:17:24;;;;;;;;;;;-9.20;99.90;;;;;;5014499;28;19925;-71
2024/01/12 07:19:51;;;;;;;;;;;-9.20;99.90;;;;;;5014483;28;19926;-71
2024/01/12 07:22:17;;;;;;;;;;;-9.20;99.90;;;;;;5017964;28;19932;-71
2024/01/12 07:24:44;;;;;;;;;;;-9.20;99.90;;;;;;5017952;28;19932;-71
2024/01/12 07:27:12;;;;;;;;;;;-9.20;99.90;;;;;;5017671;28;19932;-71
2024/01/12 07:29:38;;;;;;;;;;;-9.10;99.90;;;;;;5017557;28;20002;-71
2024/01/12 07:32:05;;;;;;;;;;;-9.20;99.90;;;;;;5017991;28;19933;-71
2024/01/12 07:34:32;;;;;;;;;;;-9.20;99.90;;;;;;5017565;28;19925;-71
2024/01/12 07:36:58;;;;;;;;;;;-9.20;99.90;;;;;;5017131;28;19925;-71
2024/01/12 07:39:25;;;;;;;;;;;-9.10;99.90;;;;;;5017578;28;19949;-71
2024/01/12 07:41:51;;;;;;;;;;;-9.10;99.90;;;;;;5017277;28;19948;-71
2024/01/12 07:44:19;;;;;;;;;;;-9.00;99.90;;;;;;5017103;28;20387;-72
2024/01/12 07:46:46;;;;;;;;;;;-9.00;99.90;;;;;;5017244;28;19933;-71
2024/01/12 07:49:12;;;;;;;;;;;-9.00;99.90;;;;;;5017054;28;19926;-71
2024/01/12 07:51:39;;;;;;;;;;;-8.90;99.90;;;;;;5017139;28;20298;-71
2024/01/12 07:54:05;;;;;;;;;;;-8.80;99.90;;;;;;5016779;28;20382;-71
2024/01/12 07:56:32;;;;;;;;;;;-8.80;99.90;;;;;;5017091;28;20268;-71
2024/01/12 07:58:59;;;;;;;;;;;-8.70;99.90;;;;;;5016668;28;20315;-72
2024/01/12 08:01:26;;;;;;;;;;;-8.50;99.90;;;;;;5016871;28;19925;-72
2024/01/12 08:03:53;;;;;;;;;;;-7.90;99.90;;;;;;5016862;28;19949;-71
2024/01/12 08:06:20;;;;;;;;;;;-7.30;99.90;;;;;;5016876;28;19997;-71
2024/01/12 08:08:47;;;;;;;;;;;-6.40;99.90;;;;;;5017204;28;19926;-71
2024/01/12 08:11:13;;;;;;;;;;;-5.70;99.90;;;;;;5016732;28;19926;-71
2024/01/12 08:13:40;;;;;;;;;;;-5.10;99.90;;;;;;5016822;28;19932;-71
2024/01/12 08:16:06;;;;;;;;;;;-4.30;99.90;;;;;;5016652;28;19925;-72
2024/01/12 08:18:34;;;;;;;;;;;-3.60;99.90;;;;;;5016629;28;20302;-72
2024/01/12 08:21:00;;;;;;;;;;;-3.30;99.90;;;;;;5016094;28;19932;-72
2024/01/12 08:23:27;;;;;;;;;;;-3.30;99.90;;;;;;5016505;28;19925;-72
2024/01/12 08:25:54;;;;;;;;;;;-3.40;99.90;;;;;;5016280;28;20383;-72
2024/01/12 08:28:21;;;;;;;;;;;-3.60;99.90;;;;;;5016518;28;19949;-72
2024/01/12 08:30:47;;;;;;;;;;;-3.80;99.90;;;;;;5016433;28;19925;-72
2024/01/12 08:33:14;;;;;;;;;;;-3.90;99.90;;;;;;5016324;28;19956;-72
2024/01/12 08:35:41;;;;;;;;;;;-4.10;99.90;;;;;;5016525;28;19933;-72
2024/01/12 08:38:08;;;;;;;;;;;-4.10;99.90;;;;;;5016315;28;19926;-72
2024/01/12 08:40:35;;;;;;;;;;;-4.00;99.90;;;;;;5016117;28;19925;-72
2024/01/12 08:43:01;;;;;;;;;;;-3.70;99.90;;;;;;5016143;28;19926;-72
2024/01/12 08:45:28;;;;;;;;;;;-3.40;99.90;;;;;;5016243;28;19925;-72
2024/01/12 08:47:55;;;;;;;;;;;-3.10;99.90;;;;;;5016516;28;19933;-72
2024/01/12 08:50:21;;;;;;;;;;;-2.80;99.90;;;;;;5016032;28;19926;-72
2024/01/12 08:52:49;;;;;;;;;;;-2.50;99.90;;;;;;5015802;28;19932;-72
2024/01/12 08:55:16;;;;;;;;;;;-2.60;99.90;;;;;;5015990;28;19930;-71
2024/01/12 08:57:44;;;;;;;;;;;-2.80;99.90;;;;;;5016752;28;21247;-70
2024/01/12 09:00:12;;;;;;;;;;;-2.90;99.90;;;;;;5016871;28;19925;-70
2024/01/12 09:02:39;;;;;;;;;;;-2.80;99.90;;;;;;5015894;28;19973;-71
2024/01/12 09:05:06;;;;;;;;;;;-2.60;99.90;;;;;;5016181;28;19933;-71
2024/01/12 09:07:33;;;;;;;;;;;-2.40;99.90;;;;;;5015602;28;20001;-71
2024/01/12 09:10:01;;;;;;;;;;;-2.10;99.90;;;;;;5015708;28;19933;-71
2024/01/12 09:12:27;;;;;;;;;;;-1.70;99.90;;;;;;5015630;28;19932;-71
2024/01/12 09:14:54;;;;;;;;;;;-1.40;99.90;;;;;;5016006;28;19925;-71
2024/01/12 09:17:20;;;;;;;;;;;-1.10;99.90;;;;;;5015595;28;19925;-71
2024/01/12 09:19:47;;;;;;;;;;;-0.80;99.90;;;;;;5016016;28;20022;-71
2024/01/12 09:22:13;;;;;;;;;;;-0.50;99.90;;;;;;5017185;28;19925;-71
2024/01/12 09:24:40;;;;;;;;;;;-0.20;99.90;;;;;;5016679;28;19925;-71
2024/01/12 09:27:08;;;;;;;;;;;0.00;99.90;;;;;;5015900;28;19933;-72
2024/01/12 09:29:35;;;;;;;;;;;0.20;99.90;;;;;;5016290;28;19933;-70
2024/01/12 09:32:01;;;;;;;;;;;0.20;99.90;;;;;;5016458;28;19969;-70
2024/01/12 09:34:28;;;;;;;;;;;0.30;99.90;;;;;;5016061;28;19933;-70
2024/01/12 09:36:54;;;;;;;;;;;0.50;99.90;;;;;;5015842;28;19933;-71
2024/01/12 09:39:22;;;;;;;;;;;0.70;99.90;;;;;;5014867;28;20448;-71
2024/01/12 09:41:49;;;;;;;;;;;0.80;99.90;;;;;;5015008;28;19976;-72
2024/01/12 09:44:19;;;;;;;;;;;1.20;99.90;;;;;;5014592;28;19930;-72
2024/01/12 09:46:52;;;;;;;;;;;1.90;99.90;;;;;;5015096;28;19926;-71
2024/01/12 09:49:19;;;;;;;;;;;2.30;99.90;;;;;;5015250;28;19925;-71
2024/01/12 09:51:45;;;;;;;;;;;2.80;99.90;;;;;;5015156;28;19932;-72
2024/01/12 09:54:15;;;;;;;;;;;3.50;99.90;;;;;;5015691;28;19926;-72
2024/01/12 09:56:41;;;;;;;;;;;3.80;99.90;;;;;;5015306;28;19926;-72
2024/01/12 09:59:08;;;;;;;;;;;3.70;99.90;;;;;;5015070;28;19926;-71
2024/01/12 10:01:36;;;;;;;;;;;3.30;99.90;;;;;;5015801;28;19926;-71
2024/01/12 10:04:03;;;;;;;;;;;2.80;99.90;;;;;;5014911;28;19926;-71
2024/01/12 10:06:30;;;;;;;;;;;2.30;99.90;;;;;;5015515;28;19933;-71
2024/01/12 10:08:58;;;;;;;;;;;1.70;99.90;;;;;;5015643;28;19932;-71
2024/01/12 10:11:24;;;;;;;;;;;1.10;99.90;;;;;;5016520;28;19933;-71
2024/01/12 10:13:51;;;;;;;;;;;0.70;99.90;;;;;;5015693;28;19925;-72
2024/01/12 10:16:18;;;;;;;;;;;0.30;99.90;;;;;;5015323;28;19932;-70
2024/01/12 10:18:46;;;;;;;;;;;0.10;99.90;;;;;;5016495;28;19932;-71
2024/01/12 10:21:14;;;;;;;;;;;-0.10;99.90;;;;;;5015639;28;19925;-71
2024/01/12 10:23:40;;;;;;;;;;;-0.10;99.90;;;;;;5014928;28;19929;-71
2024/01/12 10:26:09;;;;;;;;;;;-0.20;99.90;;;;;;5015273;28;19925;-71
2024/01/12 10:28:36;;;;;;;;;;;-0.30;99.90;;;;;;5015356;28;19926;-71
2024/01/12 10:31:04;;;;;;;;;;;-0.50;99.90;;;;;;5015197;28;19926;-70
2024/01/12 10:33:32;;;;;;;;;;;-0.60;99.90;;;;;;5014435;28;20302;-71
2024/01/12 10:36:06;;;;;;;;;;;-0.80;99.90;;;;;;5014688;28;19932;-71
2024/01/12 10:38:35;;;;;;;;;;;-1.00;99.90;;;;;;5014380;28;19932;-71
2024/01/12 10:41:04;;;;;;;;;;;-1.20;99.90;;;;;;5014395;28;19956;-71
2024/01/12 10:43:34;;;;;;;;;;;-1.40;99.90;;;;;;5014006;28;20409;-71
2024/01/12 10:46:02;;;;;;;;;;;-1.60;99.90;;;;;;5013850;28;20395;-71
2024/01/12 10:48:29;;;;;;;;;;;-1.70;99.90;;;;;;5014218;28;19933;-71
2024/01/12 10:51:00;;;;;;;;;;;-1.70;99.90;;;;;;5014246;28;19933;-72
2024/01/12 10:53:29;;;;;;;;;;;-1.60;99.90;;;;;;5013759;28;20367;-72
2024/01/12 10:55:58;;;;;;;;;;;-1.60;99.90;;;;;;5015951;28;19925;-72
2024/01/12 10:58:25;;;;;;;;;;;-1.50;99.90;;;;;;5018232;28;19926;-72
2024/01/12 11:00:51;;;;;;;;;;;-1.50;99.90;;;;;;5018023;28;19929;-72
2024/01/12 11:03:18;;;;;;;;;;;-1.40;99.90;;;;;;5018013;28;20272;-72
2024/01/12 11:05:45;;;;;;;;;;;-1.40;99.90;;;;;;5018010;28;19929;-72
2024/01/12 11:08:12;;;;;;;;;;;-1.40;99.90;;;;;;5017951;28;19933;-72
2024/01/12 11:10:43;;;;;;;;;;;-1.40;99.90;;;;;;5017653;28;19931;-72
2024/01/12 11:13:13;;;;;;;;;;;-1.40;99.90;;;;;;5017845;28;19933;-72
2024/01/12 11:15:40;;;;;;;;;;;-1.40;99.90;;;;;;5017999;28;19930;-72
2024/01/12 11:18:07;;;;;;;;;;;-1.40;99.90;;;;;;5017535;28;20413;-71
2024/01/12 11:20:33;;;;;;;;;;;-1.30;99.90;;;;;;5017726;28;19932;-71
2024/01/12 11:23:00;;;;;;;;;;;-1.30;99.90;;;;;;5017843;28;19925;-72
2024/01/12 11:25:27;;;;;;;;;;;-1.30;99.90;;;;;;5017630;28;19933;-72
2024/01/12 11:27:56;;;;;;;;;;;-1.30;99.90;;;;;;5017669;28;20330;-72
2024/01/12 11:30:24;;;;;;;;;;;-1.20;99.90;;;;;;5017550;28;19925;-72
2024/01/12 11:33:00;;;;;;;;;;;-1.20;99.90;;;;;;5017574;28;20024;-72
2024/01/12 11:35:29;;;;;;;;;;;-1.10;99.90;;;;;;5017873;28;19933;-72
2024/01/12 11:38:00;;;;;;;;;;;-1.10;99.90;;;;;;5017401;28;19925;-72
2024/01/12 11:40:26;;;;;;;;;;;-1.10;99.90;;;;;;5018359;28;19925;-70
2024/01/12 11:42:54;;;;;;;;;;;-1.00;99.90;;;;;;5018079;28;19925;-70
2024/01/12 11:45:21;;;;;;;;;;;-1.00;99.90;;;;;;5018220;28;19929;-70
2024/01/12 11:47:48;;;;;;;;;;;-0.90;99.90;;;;;;5017474;28;20413;-71
2024/01/12 11:50:15;;;;;;;;;;;-0.90;99.90;;;;;;5018486;28;20371;-70
2024/01/12 11:52:42;;;;;;;;;;;-0.90;99.90;;;;;;5016987;28;19988;-70
2024/01/12 11:55:10;;;;;;;;;;;-0.80;99.90;;;;;;5016955;28;20390;-70
2024/01/12 11:57:37;;;;;;;;;;;-0.90;99.90;;;;;;5017087;28;19929;-70
2024/01/12 12:00:06;;;;;;;;;;;-0.90;99.90;;;;;;5016841;28;19932;-70
2024/01/12 12:02:35;;;;;;;;;;;-0.80;99.90;;;;;;5017561;28;19969;-70
2024/01/12 12:05:04;;;;;;;;;;;-0.80;99.90;;;;;;5017085;28;20012;-70
2024/01/12 12:07:30;;;;;;;;;;;-0.80;99.90;;;;;;5016546;28;19925;-70
2024/01/12 12:09:57;;;;;;;;;;;-0.80;99.90;;;;;;5017078;28;19926;-70
2024/01/12 12:12:24;;;;;;;;;;;-0.80;99.90;;;;;;5018238;28;19932;-72
2024/01/12 12:14:57;;;;;;;;;;;-0.80;99.90;;;;;;5016958;28;20027;-71
2024/01/12 12:17:25;;;;;;;;;;;-0.80;99.90;;;;;;5016343;28;20401;-70
2024/01/12 12:19:52;;;;;;;;;;;-0.80;99.90;;;;;;5016744;28;20421;-71
2024/01/12 12:22:19;;;;;;;;;;;-0.80;99.90;;;;;;5017071;28;19925;-72
2024/01/12 12:24:45;;;;;;;;;;;-0.80;99.90;;;;;;5016499;28;20414;-72
2024/01/12 12:27:12;;;;;;;;;;;-0.80;99.90;;;;;;5016744;28;19936;-72
2024/01/12 12:29:40;;;;;;;;;;;-0.80;99.90;;;;;;5016614;28;19929;-71
2024/01/12 12:32:10;;;;;;;;;;;-0.80;99.90;;;;;;5016682;28;19926;-71
2024/01/12 12:34:40;;;;;;;;;;;-0.80;99.90;;;;;;5017368;28;19932;-73
2024/01/12 12:37:07;;;;;;;;;;;-0.70;99.90;;;;;;5016537;28;19926;-71
2024/01/12 12:39:35;;;;;;;;;;;-0.70;99.90;;;;;;5016397;28;19926;-69
2024/01/12 12:42:02;;;;;;;;;;;-0.80;99.90;;;;;;5016421;28;19935;-70
2024/01/12 12:44:31;;;;;;;;;;;-0.80;99.90;;;;;;5022960;23;20322;-72
2024/01/12 12:46:58;;;;;;;;;;;-0.80;99.90;;;;;;4996466;28;19926;-72
2024/01/12 12:49:36;;;;;;;;;;;-0.70;99.90;;;;;;4998342;28;19930;-71
2024/01/12 12:52:04;;;;;;;;;;;-0.80;99.90;;;;;;4978186;28;19926;-70
2024/01/12 12:54:32;;;;;;;;;;;-0.80;99.90;;;;;;4978761;28;20002;-70
2024/01/12 12:56:59;;;;;;;;;;;-0.80;99.90;;;;;;4977056;28;19926;-70
2024/01/12 12:59:26;;;;;;;;;;;-0.90;99.90;;;;;;4977181;28;19933;-69
2024/01/12 13:01:53;;;;;;;;;;;-0.90;99.90;;;;;;4976717;28;19981;-71
2024/01/12 13:04:19;;;;;;;;;;;-0.90;99.90;;;;;;4976691;28;19964;-71
2024/01/12 13:06:45;;;;;;;;;;;-1.00;99.90;;;;;;4977622;28;19933;-70
2024/01/12 13:09:13;;;;;;;;;;;-1.00;99.90;;;;;;4976926;28;19921;-69
2024/01/12 13:11:40;;;;;;;;;;;-1.00;99.90;;;;;;4976735;28;19932;-69
2024/01/12 13:14:07;;;;;;;;;;;-1.10;99.90;;;;;;4977002;28;19930;-69
2024/01/12 13:16:35;;;;;;;;;;;-1.10;99.90;;;;;;4977254;28;19973;-70
2024/01/12 13:19:04;;;;;;;;;;;-1.20;99.90;;;;;;4976024;28;19976;-70
2024/01/12 13:21:31;;;;;;;;;;;-1.20;99.90;;;;;;4976843;28;19980;-71
2024/01/12 13:24:00;;;;;;;;;;;-1.20;99.90;;;;;;4977045;28;19926;-72
2024/01/12 13:26:34;;;;;;;;;;;-1.60;99.90;;;;;;4977432;28;19927;-72
2024/01/12 13:29:02;;;;;;;;;;;-1.30;99.90;;;;;;4977942;28;19930;-73
2024/01/12 13:31:29;;;;;;;;;;;-1.30;99.90;;;;;;4975993;28;20360;-73
2024/01/12 13:33:55;;;;;;;;;;;-1.40;99.90;;;;;;4976276;28;19926;-73
2024/01/12 13:36:22;;;;;;;;;;;-1.40;99.90;;;;;;4976020;28;20327;-72
2024/01/12 13:38:53;;;;;;;;;;;-1.50;99.90;;;;;;4976384;28;19926;-73
2024/01/12 13:41:21;;;;;;;;;;;-1.50;99.90;;;;;;4976103;28;19930;-72
2024/01/12 13:43:49;;;;;;;;;;;-1.60;99.90;;;;;;4975983;28;19934;-71
2024/01/12 13:46:16;;;;;;;;;;;-1.60;99.90;;;;;;4975815;28;20339;-72
2024/01/12 13:48:43;;;;;;;;;;;-1.60;99.90;;;;;;4975810;28;20303;-72
2024/01/12 13:51:09;;;;;;;;;;;-1.70;99.90;;;;;;4975582;28;19937;-72
2024/01/12 13:53:36;;;;;;;;;;;-1.70;99.90;;;;;;4975640;28;20388;-72
2024/01/12 13:56:03;;;;;;;;;;;-1.80;99.90;;;;;;4975992;28;19925;-72
2024/01/12 13:58:30;;;;;;;;;;;-1.80;99.90;;;;;;4975659;28;20376;-72
2024/01/12 14:00:58;;;;;;;;;;;-1.80;99.90;;;;;;4975706;28;19976;-72
2024/01/12 14:03:25;;;;;;;;;;;-1.90;99.90;;;;;;4975783;28;19932;-72
2024/01/12 14:05:51;;;;;;;;;;;-1.90;99.90;;;;;;4975699;28;19926;-72
2024/01/12 14:08:18;;;;;;;;;;;-1.90;99.90;;;;;;4975698;28;19934;-72
2024/01/12 14:10:45;;;;;;;;;;;-2.00;99.90;;;;;;4975775;28;19949;-72
2024/01/12 14:13:12;;;;;;;;;;;-2.00;99.90;;;;;;4975710;28;20045;-72
2024/01/12 14:15:40;;;;;;;;;;;-2.00;99.90;;;;;;4975769;28;19926;-72
2024/01/12 14:18:08;;;;;;;;;;;-2.10;99.90;;;;;;4975515;28;20034;-73
2024/01/12 14:20:35;;;;;;;;;;;-2.20;99.90;;;;;;4976461;28;20429;-72
2024/01/12 14:23:02;;;;;;;;;;;-2.10;99.90;;;;;;4975445;28;19926;-73
2024/01/12 14:25:29;;;;;;;;;;;-2.20;99.90;;;;;;4975501;28;19973;-73
2024/01/12 14:27:56;;;;;;;;;;;-2.20;99.90;;;;;;4975283;28;19926;-71
2024/01/12 14:30:23;;;;;;;;;;;-2.20;99.90;;;;;;4974990;28;20387;-71
2024/01/12 14:32:50;;;;;;;;;;;-2.20;99.90;;;;;;4975367;28;19930;-71
2024/01/12 14:35:18;;;;;;;;;;;-2.30;99.90;;;;;;4975541;28;19926;-72
2024/01/12 14:37:44;;;;;;;;;;;-2.30;99.90;;;;;;4975238;28;19938;-71
2024/01/12 14:40:11;;;;;;;;;;;-2.30;99.90;;;;;;4974918;28;20399;-70
2024/01/12 14:42:38;;;;;;;;;;;-2.40;99.90;;;;;;4975295;28;19933;-72
2024/01/12 14:45:07;;;;;;;;;;;-2.40;99.90;;;;;;4975309;28;19933;-73
2024/01/12 14:47:34;;;;;;;;;;;-2.40;99.90;;;;;;4974885;28;19933;-72
2024/01/12 14:50:01;;;;;;;;;;;-2.50;99.90;;;;;;4975282;28;19926;-72
2024/01/12 14:52:29;;;;;;;;;;;-2.50;99.90;;;;;;4975320;28;19934;-72
2024/01/12 14:54:56;;;;;;;;;;;-2.50;99.90;;;;;;4975571;28;19926;-72
2024/01/12 14:57:22;;;;;;;;;;;-2.50;99.90;;;;;;4975891;28;19932;-72
2024/01/12 14:59:49;;;;;;;;;;;-2.50;99.90;;;;;;4975861;28;20304;-73
2024/01/12 15:02:15;;;;;;;;;;;-2.50;99.90;;;;;;4976277;28;19937;-72
2024/01/12 15:04:43;;;;;;;;;;;-2.50;99.90;;;;;;4976689;28;19926;-72
2024/01/12 15:07:10;;;;;;;;;;;-2.60;99.90;;;;;;4978552;28;19926;-72
2024/01/12 15:09:38;;;;;;;;;;;-2.50;99.90;;;;;;4979519;28;20061;-71
2024/01/12 15:12:06;;;;;;;;;;;-2.50;99.90;;;;;;4976025;28;19948;-72
2024/01/12 15:14:33;;;;;;;;;;;-2.50;99.90;;;;;;4975154;28;19970;-72
2024/01/12 15:17:00;;;;;;;;;;;-2.60;99.90;;;;;;4975461;28;19926;-74
2024/01/12 15:19:27;;;;;;;;;;;-2.60;99.90;;;;;;4975059;28;19961;-73
2024/01/12 15:21:54;;;;;;;;;;;-2.60;99.90;;;;;;4974807;28;19927;-73
2024/01/12 15:24:20;;;;;;;;;;;-2.60;99.90;;;;;;4974886;28;19926;-71
2024/01/12 15:26:48;;;;;;;;;;;-2.70;99.90;;;;;;4974901;28;19926;-70
2024/01/12 15:29:16;;;;;;;;;;;-2.70;99.90;;;;;;4974713;28;19930;-70
2024/01/12 15:31:43;;;;;;;;;;;-2.70;99.90;;;;;;4974397;28;20396;-69
2024/01/12 15:34:10;;;;;;;;;;;-2.80;99.90;;;;;;4974763;28;19927;-70
2024/01/12 15:36:36;;;;;;;;;;;-2.90;99.90;;;;;;4977988;28;19934;-72
2024/01/12 15:39:03;;;;;;;;;;;-2.90;99.90;;;;;;4974846;28;19926;-72
2024/01/12 15:41:29;;;;;;;;;;;-3.00;99.90;;;;;;4975600;28;19933;-72
2024/01/12 15:43:58;;;;;;;;;;;-3.10;99.90;;;;;;4978420;28;19930;-72
2024/01/12 15:46:25;;;;;;;;;;;-3.20;99.90;;;;;;4978436;28;19926;-73
2024/01/12 15:48:51;;;;;;;;;;;-3.30;99.90;;;;;;4978611;28;19937;-72
2024/01/12 15:51:19;;;;;;;;;;;-3.40;99.90;;;;;;4978276;28;19926;-73
2024/01/12 15:53:46;;;;;;;;;;;-3.40;99.90;;;;;;4978320;28;19972;-73
2024/01/12 15:56:12;;;;;;;;;;;-3.50;99.90;;;;;;4980184;28;19926;-73
2024/01/12 15:58:39;;;;;;;;;;;-3.60;99.90;;;;;;4980838;28;19975;-70
2024/01/12 16:01:07;;;;;;;;;;;-3.70;99.90;;;;;;4979793;28;19926;-69
2024/01/12 16:03:33;;;;;;;;;;;-3.70;99.90;;;;;;4981011;28;19930;-70
2024/01/12 16:06:00;;;;;;;;;;;-3.70;99.90;;;;;;4980581;28;19956;-71
2024/01/12 16:08:26;;;;;;;;;;;-3.80;99.90;;;;;;4979860;28;19949;-70
2024/01/12 16:10:53;;;;;;;;;;;-3.70;99.90;;;;;;4979453;28;19926;-70
2024/01/12 16:13:19;;;;;;;;;;;-3.70;99.90;;;;;;4979323;28;19926;-71
2024/01/12 16:15:46;;;;;;;;;;;-3.70;99.90;;;;;;4979344;28;19933;-72
2024/01/12 16:18:14;;;;;;;;;;;-3.70;99.90;;;;;;4978648;28;19926;-70
2024/01/12 16:20:40;;;;;;;;;;;-3.70;99.90;;;;;;4979286;28;19933;-70
2024/01/12 16:23:07;;;;;;;;;;;-3.80;99.90;;;;;;4977737;28;19933;-70
2024/01/12 16:25:33;;;;;;;;;;;-3.80;99.90;;;;;;4978046;28;19926;-71
2024/01/12 16:28:00;;;;;;;;;;;-3.90;99.90;;;;;;4977809;28;19926;-71
2024/01/12 16:30:26;;;;;;;;;;;-4.00;99.90;;;;;;4977870;28;19930;-70
2024/01/12 16:32:53;;;;;;;;;;;-4.10;99.90;;;;;;4978231;28;19927;-71
2024/01/12 16:35:21;;;;;;;;;;;-4.10;99.90;;;;;;4978073;28;19934;-72
2024/01/12 16:37:47;;;;;;;;;;;-4.20;99.90;;;;;;4977781;28;19933;-72
2024/01/12 16:40:15;;;;;;;;;;;-4.30;99.90;;;;;;4977450;28;20244;-72
2024/01/12 16:42:42;;;;;;;;;;;-4.30;99.90;;;;;;4977952;28;19965;-71
2024/01/12 16:45:09;;;;;;;;;;;-4.40;99.90;;;;;;4977311;28;19926;-71
2024/01/12 16:47:36;;;;;;;;;;;-4.40;99.90;;;;;;4977238;28;20435;-70
2024/01/12 16:50:03;;;;;;;;;;;-4.40;99.90;;;;;;4977057;28;20371;-69
2024/01/12 16:52:38;;;;;;;;;;;-4.50;99.90;;;;;;4977360;28;19926;-69
2024/01/12 16:55:05;;;;;;;;;;;-4.60;99.90;;;;;;4977422;28;20001;-69
2024/01/12 16:57:32;;;;;;;;;;;-4.60;99.90;;;;;;4977230;28;19926;-70
2024/01/12 16:59:59;;;;;;;;;;;-4.70;99.90;;;;;;4976916;28;19926;-70
2024/01/12 17:02:25;;;;;;;;;;;-4.80;99.90;;;;;;4977154;28;19933;-70
2024/01/12 17:04:52;;;;;;;;;;;-4.80;99.90;;;;;;4977027;28;19926;-69
2024/01/12 17:07:20;;;;;;;;;;;-4.80;99.90;;;;;;4976936;28;19926;-70
2024/01/12 17:09:48;;;;;;;;;;;-4.90;99.90;;;;;;4976828;28;19926;-70
2024/01/12 17:12:15;;;;;;;;;;;-5.00;99.90;;;;;;4976975;28;19933;-70
2024/01/12 17:14:42;;;;;;;;;;;-5.00;99.90;;;;;;4976717;28;19927;-70
2024/01/12 17:17:08;;;;;;;;;;;-5.00;99.90;;;;;;4976793;28;19926;-70
2024/01/12 17:19:35;;;;;;;;;;;-5.10;99.90;;;;;;4976466;28;19926;-71
2024/01/12 17:22:01;;;;;;;;;;;-5.00;99.90;;;;;;4976736;28;19926;-70
2024/01/12 17:24:28;;;;;;;;;;;-5.10;99.90;;;;;;4976714;28;19926;-70
2024/01/12 17:26:56;;;;;;;;;;;-5.10;99.90;;;;;;4976576;28;19926;-70
2024/01/12 17:29:23;;;;;;;;;;;-5.10;99.90;;;;;;4976754;28;19930;-70
2024/01/12 17:31:50;;;;;;;;;;;-5.20;99.90;;;;;;4976519;28;19926;-70
2024/01/12 17:34:17;;;;;;;;;;;-5.20;99.90;;;;;;4976232;28;19926;-69
2024/01/12 17:36:48;;;;;;;;;;;-5.30;99.90;;;;;;4976462;28;19930;-71
2024/01/12 17:39:15;;;;;;;;;;;-5.30;99.90;;;;;;4976284;28;19988;-70
2024/01/12 17:41:41;;;;;;;;;;;-5.30;99.90;;;;;;4976185;28;19949;-71
2024/01/12 17:44:09;;;;;;;;;;;-5.40;99.90;;;;;;4975883;28;19926;-71
2024/01/12 17:46:37;;;;;;;;;;;-5.40;99.90;;;;;;4976218;28;19926;-70
2024/01/12 17:49:05;;;;;;;;;;;-5.50;99.90;;;;;;4976061;28;19933;-70
2024/01/12 17:51:34;;;;;;;;;;;-5.50;99.90;;;;;;4975808;28;19933;-70
2024/01/12 17:54:00;;;;;;;;;;;-5.50;99.90;;;;;;4976136;28;19926;-70
2024/01/12 17:56:27;;;;;;;;;;;-5.40;99.90;;;;;;4975981;28;19933;-70
2024/01/12 17:58:54;;;;;;;;;;;-5.60;99.90;;;;;;4975959;28;19926;-69
2024/01/12 18:01:23;;;;;;;;;;;-5.60;99.90;;;;;;4976154;28;20403;-69
2024/01/12 18:03:49;;;;;;;;;;;-5.60;99.90;;;;;;4977009;28;19926;-70
2024/01/12 18:06:16;;;;;;;;;;;-5.60;99.90;;;;;;4976656;28;19937;-69
2024/01/12 18:08:42;;;;;;;;;;;-5.60;99.90;;;;;;4976702;28;19926;-70
2024/01/12 18:11:10;;;;;;;;;;;-5.70;99.90;;;;;;4975701;28;19926;-70
2024/01/12 18:13:45;;;;;;;;;;;-5.70;99.90;;;;;;5014453;23;19933;-71
2024/01/12 18:16:11;;;;;;;;;;;-5.80;99.90;;;;;;4995019;28;19926;-71
2024/01/12 18:18:39;;;;;;;;;;;-5.80;99.90;;;;;;4994906;28;20387;-71
2024/01/12 18:21:06;;;;;;;;;;;-5.80;99.90;;;;;;4994844;28;19933;-72
2024/01/12 18:23:33;;;;;;;;;;;-5.90;99.90;;;;;;5010361;28;19929;-72
2024/01/12 18:26:00;;;;;;;;;;;-5.90;99.90;;;;;;5014494;28;20366;-72
2024/01/12 18:28:27;;;;;;;;;;;-5.90;99.90;;;;;;5014819;28;20028;-70
2024/01/12 18:30:54;;;;;;;;;;;-5.80;99.90;;;;;;5014502;28;19929;-70
2024/01/12 18:33:20;;;;;;;;;;;-6.00;99.90;;;;;;5024126;28;19925;-70
2024/01/12 18:35:48;;;;;;;;;;;-5.90;99.90;;;;;;5022462;28;19925;-70
2024/01/12 18:38:15;;;;;;;;;;;-6.00;99.90;;;;;;5021197;28;19925;-70
2024/01/12 18:40:42;;;;;;;;;;;-6.00;99.90;;;;;;5014594;28;19953;-70
2024/01/12 18:43:08;;;;;;;;;;;-6.10;99.90;;;;;;5014040;28;20414;-70
2024/01/12 18:45:36;;;;;;;;;;;-6.10;99.90;;;;;;5016194;28;19932;-70
2024/01/12 18:48:03;;;;;;;;;;;-6.20;99.90;;;;;;5016840;28;19932;-71
2024/01/12 18:50:30;;;;;;;;;;;-6.20;99.90;;;;;;5016350;28;19925;-71
2024/01/12 18:52:58;;;;;;;;;;;-6.20;99.90;;;;;;5016342;28;20298;-70
2024/01/12 18:55:24;;;;;;;;;;;-6.10;99.90;;;;;;5016218;28;19937;-71
2024/01/12 18:57:52;;;;;;;;;;;-6.20;99.90;;;;;;5015506;28;19929;-70
2024/01/12 19:00:18;;;;;;;;;;;-6.20;99.90;;;;;;5016100;28;20378;-70
2024/01/12 19:02:45;;;;;;;;;;;-6.20;99.90;;;;;;5015819;28;19932;-70
2024/01/12 19:05:12;;;;;;;;;;;-6.10;99.90;;;;;;5015932;28;19926;-71
2024/01/12 19:07:38;;;;;;;;;;;-6.20;99.90;;;;;;5016149;28;20280;-71
2024/01/12 19:10:07;;;;;;;;;;;-6.20;99.90;;;;;;5014490;28;20395;-70